sensor_id;sensor_type;location;lat;lon;timestamp;pressure;altitude;pressure_sealevel;temperature;humidity
34586;BME280;20816;50.950;11.108;2023-10-19T00:01:16;96939.38;;;8.65;100.00
34586;BME280;20816;50.950;11.108;2023-10-19T00:03:44;96935.28;;;8.58;100.00
34586;BME280;20816;50.950;11.108;2023-10-19T00:06:16;96938.44;;;8.66;100.00
34586;BME280;20816;50.950;11.108;2023-10-19T00:08:44;96931.34;;;8.48;100.00
34586;BME280;20816;50.950;11.108;2023-10-19T00:11:11;96919.97;;;8.49;100.00
34586;BME280;20816;50.950;11.108;2023-10-19T00:13:48;96926.88;;;8.50;100.00
34586;BME280;20816;50.950;11.108;2023-10-19T00:16:21;96928.72;;;8.48;100.00
34586;BME280;20816;50.950;11.108;2023-10-19T00:18:56;96920.19;;;8.43;100.00
34586;BME280;20816;50.950;11.108;2023-10-19T00:21:26;96928.72;;;8.48;100.00
34586;BME280;20816;50.950;11.108;2023-10-19T00:23:55;96926.75;;;8.53;100.00
34586;BME280;20816;50.950;11.108;2023-10-19T00:26:32;96921.53;;;8.53;100.00
34586;BME280;20816;50.950;11.108;2023-10-19T00:28:59;96911.84;;;8.55;100.00
34586;BME280;20816;50.950;11.108;2023-10-19T00:31:31;96903.34;;;8.50;100.00
34586;BME280;20816;50.950;11.108;2023-10-19T00:34:03;96896.94;;;8.35;100.00
34586;BME280;20816;50.950;11.108;2023-10-19T00:36:30;96889.84;;;8.39;100.00
34586;BME280;20816;50.950;11.108;2023-10-19T00:38:58;96888.28;;;8.33;100.00
34586;BME280;20816;50.950;11.108;2023-10-19T00:41:27;96885.50;;;8.38;100.00
34586;BME280;20816;50.950;11.108;2023-10-19T00:43:58;96886.56;;;8.32;100.00
34586;BME280;20816;50.950;11.108;2023-10-19T00:46:38;96873.06;;;8.43;100.00
34586;BME280;20816;50.950;11.108;2023-10-19T00:49:09;96867.84;;;8.43;100.00
34586;BME280;20816;50.950;11.108;2023-10-19T00:51:41;96869.78;;;8.38;100.00
34586;BME280;20816;50.950;11.108;2023-10-19T00:54:35;96854.88;;;8.40;100.00
34586;BME280;20816;50.950;11.108;2023-10-19T00:57:05;96860.16;;;8.38;100.00
34586;BME280;20816;50.950;11.108;2023-10-19T00:59:39;96854.88;;;8.40;100.00
34586;BME280;20816;50.950;11.108;2023-10-19T01:02:13;96861.03;;;8.39;100.00
34586;BME280;20816;50.950;11.108;2023-10-19T01:04:45;96850.56;;;8.39;100.00
34586;BME280;20816;50.950;11.108;2023-10-19T01:07:17;96843.97;;;8.51;100.00
34586;BME280;20816;50.950;11.108;2023-10-19T01:10:04;96843.13;;;8.50;100.00
34586;BME280;20816;50.950;11.108;2023-10-19T01:12:47;96834.88;;;8.39;100.00
34586;BME280;20816;50.950;11.108;2023-10-19T01:15:17;96821.38;;;8.48;100.00
34586;BME280;20816;50.950;11.108;2023-10-19T01:17:46;96823.50;;;8.38;100.00
34586;BME280;20816;50.950;11.108;2023-10-19T01:20:17;96810.50;;;8.37;100.00
34586;BME280;20816;50.950;11.108;2023-10-19T01:22:58;96808.78;;;8.36;100.00
34586;BME280;20816;50.950;11.108;2023-10-19T01:25:45;96809.66;;;8.36;100.00
34586;BME280;20816;50.950;11.108;2023-10-19T01:28:34;96810.38;;;8.40;100.00
34586;BME280;20816;50.950;11.108;2023-10-19T01:31:25;96790.41;;;8.37;100.00
34586;BME280;20816;50.950;11.108;2023-10-19T01:33:59;96788.06;;;8.30;100.00
34586;BME280;20816;50.950;11.108;2023-10-19T01:36:27;96784.44;;;8.34;100.00
34586;BME280;20816;50.950;11.108;2023-10-19T01:38:55;96783.22;;;8.42;100.00
34586;BME280;20816;50.950;11.108;2023-10-19T01:41:24;96784.22;;;8.40;100.00
34586;BME280;20816;50.950;11.108;2023-10-19T01:43:53;96784.06;;;8.43;100.00
34586;BME280;20816;50.950;11.108;2023-10-19T01:46:23;96770.47;;;8.35;100.00
34586;BME280;20816;50.950;11.108;2023-10-19T01:49:03;96768.38;;;8.43;100.00
34586;BME280;20816;50.950;11.108;2023-10-19T01:51:32;96760.38;;;8.46;100.00
34586;BME280;20816;50.950;11.108;2023-10-19T01:54:00;96765.81;;;8.41;100.00
34586;BME280;20816;50.950;11.108;2023-10-19T01:56:30;96757.50;;;8.52;100.00
34586;BME280;20816;50.950;11.108;2023-10-19T01:58:57;96749.25;;;8.41;100.00
34586;BME280;20816;50.950;11.108;2023-10-19T02:01:25;96756.06;;;8.45;100.00
34586;BME280;20816;50.950;11.108;2023-10-19T02:03:57;96749.13;;;8.44;100.00
34586;BME280;20816;50.950;11.108;2023-10-19T02:06:29;96739.50;;;8.45;100.00
34586;BME280;20816;50.950;11.108;2023-10-19T02:09:04;96735.25;;;8.42;100.00
34586;BME280;20816;50.950;11.108;2023-10-19T02:11:46;96729.88;;;8.45;100.00
34586;BME280;20816;50.950;11.108;2023-10-19T02:14:14;96726.47;;;8.43;100.00
34586;BME280;20816;50.950;11.108;2023-10-19T02:16:46;96728.19;;;8.44;100.00
34586;BME280;20816;50.950;11.108;2023-10-19T02:19:14;96730.03;;;8.42;100.00
34586;BME280;20816;50.950;11.108;2023-10-19T02:21:41;96721.09;;;8.46;100.00
34586;BME280;20816;50.950;11.108;2023-10-19T02:24:09;96719.28;;;8.48;100.00
34586;BME280;20816;50.950;11.108;2023-10-19T02:26:39;96701.59;;;8.53;100.00
34586;BME280;20816;50.950;11.108;2023-10-19T02:29:07;96702.50;;;8.52;100.00
34586;BME280;20816;50.950;11.108;2023-10-19T02:31:36;96690.94;;;8.58;100.00
34586;BME280;20816;50.950;11.108;2023-10-19T02:34:08;96685.63;;;8.59;100.00
34586;BME280;20816;50.950;11.108;2023-10-19T02:36:41;96680.13;;;8.65;100.00
34586;BME280;20816;50.950;11.108;2023-10-19T02:39:11;96675.00;;;8.62;100.00
34586;BME280;20816;50.950;11.108;2023-10-19T02:41:46;96666.53;;;8.57;100.00
34586;BME280;20816;50.950;11.108;2023-10-19T02:44:19;96668.06;;;8.61;100.00
34586;BME280;20816;50.950;11.108;2023-10-19T02:46:55;96662.72;;;8.64;100.00
34586;BME280;20816;50.950;11.108;2023-10-19T02:49:27;96659.44;;;8.59;100.00
34586;BME280;20816;50.950;11.108;2023-10-19T02:51:56;96656.47;;;8.67;100.00
34586;BME280;20816;50.950;11.108;2023-10-19T02:54:31;96648.69;;;8.65;100.00
34586;BME280;20816;50.950;11.108;2023-10-19T02:57:01;96640.59;;;8.70;100.00
34586;BME280;20816;50.950;11.108;2023-10-19T02:59:33;96647.97;;;8.62;100.00
34586;BME280;20816;50.950;11.108;2023-10-19T03:02:00;96650.25;;;8.69;100.00
34586;BME280;20816;50.950;11.108;2023-10-19T03:04:29;96648.81;;;8.62;100.00
34586;BME280;20816;50.950;11.108;2023-10-19T03:06:56;96648.69;;;8.65;100.00
34586;BME280;20816;50.950;11.108;2023-10-19T03:09:24;96630.84;;;8.74;100.00
34586;BME280;20816;50.950;11.108;2023-10-19T03:11:55;96630.13;;;8.70;100.00
34586;BME280;20816;50.950;11.108;2023-10-19T03:14:26;96646.84;;;8.67;100.00
34586;BME280;20816;50.950;11.108;2023-10-19T03:16:54;96646.41;;;8.77;100.00
34586;BME280;20816;50.950;11.108;2023-10-19T03:19:24;96644.06;;;8.70;100.00
34586;BME280;20816;50.950;11.108;2023-10-19T03:21:54;96645.72;;;8.73;100.00
34586;BME280;20816;50.950;11.108;2023-10-19T03:24:22;96643.09;;;8.73;100.00
34586;BME280;20816;50.950;11.108;2023-10-19T03:27:11;96641.19;;;8.77;100.00
34586;BME280;20816;50.950;11.108;2023-10-19T03:29:49;96628.50;;;8.86;100.00
34586;BME280;20816;50.950;11.108;2023-10-19T03:32:23;96627.38;;;8.92;100.00
34586;BME280;20816;50.950;11.108;2023-10-19T03:34:55;96619.44;;;8.93;100.00
34586;BME280;20816;50.950;11.108;2023-10-19T03:37:23;96617.38;;;9.00;100.00
34586;BME280;20816;50.950;11.108;2023-10-19T03:39:52;96611.38;;;8.98;100.00
34586;BME280;20816;50.950;11.108;2023-10-19T03:42:23;96599.72;;;9.04;100.00
34586;BME280;20816;50.950;11.108;2023-10-19T03:44:54;96591.94;;;9.02;100.00
34586;BME280;20816;50.950;11.108;2023-10-19T03:47:23;96587.28;;;9.09;100.00
34586;BME280;20816;50.950;11.108;2023-10-19T03:50:01;96581.94;;;9.10;100.00
34586;BME280;20816;50.950;11.108;2023-10-19T03:52:36;96581.19;;;9.08;100.00
34586;BME280;20816;50.950;11.108;2023-10-19T03:55:07;96580.06;;;9.14;100.00
34586;BME280;20816;50.950;11.108;2023-10-19T03:57:46;96581.94;;;9.10;100.00
34586;BME280;20816;50.950;11.108;2023-10-19T04:00:21;96593.34;;;9.09;100.00
34586;BME280;20816;50.950;11.108;2023-10-19T04:02:53;96583.22;;;9.20;100.00
34586;BME280;20816;50.950;11.108;2023-10-19T04:05:22;96579.81;;;9.18;100.00
34586;BME280;20816;50.950;11.108;2023-10-19T04:07:49;96574.44;;;9.21;100.00
34586;BME280;20816;50.950;11.108;2023-10-19T04:10:18;96553.47;;;9.21;100.00
34586;BME280;20816;50.950;11.108;2023-10-19T04:13:08;96558.56;;;9.24;100.00
34586;BME280;20816;50.950;11.108;2023-10-19T04:15:40;96564.72;;;9.23;100.00
34586;BME280;20816;50.950;11.108;2023-10-19T04:18:08;96560.63;;;9.35;100.00
34586;BME280;20816;50.950;11.108;2023-10-19T04:20:37;96556.09;;;9.39;100.00
34586;BME280;20816;50.950;11.108;2023-10-19T04:23:17;96557.88;;;9.38;100.00
34586;BME280;20816;50.950;11.108;2023-10-19T04:25:43;96559.47;;;9.41;100.00
34586;BME280;20816;50.950;11.108;2023-10-19T04:28:14;96555.84;;;9.61;100.00
34586;BME280;20816;50.950;11.108;2023-10-19T04:30:41;96548.84;;;9.61;100.00
34586;BME280;20816;50.950;11.108;2023-10-19T04:33:08;96541.63;;;9.82;100.00
34586;BME280;20816;50.950;11.108;2023-10-19T04:35:37;96551.44;;;9.96;100.00
34586;BME280;20816;50.950;11.108;2023-10-19T04:38:08;96547.56;;;10.03;100.00
34586;BME280;20816;50.950;11.108;2023-10-19T04:40:34;96542.13;;;10.06;100.00
34586;BME280;20816;50.950;11.108;2023-10-19T04:43:02;96543.69;;;10.10;100.00
34586;BME280;20816;50.950;11.108;2023-10-19T04:45:31;96539.50;;;10.23;100.00
34586;BME280;20816;50.950;11.108;2023-10-19T04:47:58;96538.47;;;10.26;100.00
34586;BME280;20816;50.950;11.108;2023-10-19T04:50:25;96539.84;;;10.33;100.00
34586;BME280;20816;50.950;11.108;2023-10-19T04:52:52;96539.00;;;10.32;100.00
34586;BME280;20816;50.950;11.108;2023-10-19T04:55:19;96525.63;;;10.37;100.00
34586;BME280;20816;50.950;11.108;2023-10-19T04:57:46;96524.78;;;10.36;100.00
34586;BME280;20816;50.950;11.108;2023-10-19T05:00:13;96521.56;;;10.47;100.00
34586;BME280;20816;50.950;11.108;2023-10-19T05:02:42;96520.06;;;10.43;100.00
34586;BME280;20816;50.950;11.108;2023-10-19T05:05:09;96511.16;;;10.46;100.00
34586;BME280;20816;50.950;11.108;2023-10-19T05:07:36;96507.78;;;10.44;100.00
34586;BME280;20816;50.950;11.108;2023-10-19T05:10:03;96510.03;;;10.50;100.00
34586;BME280;20816;50.950;11.108;2023-10-19T05:12:32;96504.78;;;10.50;100.00
34586;BME280;20816;50.950;11.108;2023-10-19T05:14:59;96506.31;;;10.54;100.00
34586;BME280;20816;50.950;11.108;2023-10-19T05:17:26;96509.38;;;10.62;100.00
34586;BME280;20816;50.950;11.108;2023-10-19T05:19:54;96511.56;;;10.54;100.00
34586;BME280;20816;50.950;11.108;2023-10-19T05:22:23;96502.75;;;10.55;100.00
34586;BME280;20816;50.950;11.108;2023-10-19T05:24:52;96517.06;;;10.65;100.00
34586;BME280;20816;50.950;11.108;2023-10-19T05:27:18;96512.75;;;10.64;100.00
34586;BME280;20816;50.950;11.108;2023-10-19T05:29:46;96513.25;;;10.71;100.00
34586;BME280;20816;50.950;11.108;2023-10-19T05:32:13;96523.13;;;10.67;100.00
34586;BME280;20816;50.950;11.108;2023-10-19T05:34:40;96518.84;;;10.64;100.00
34586;BME280;20816;50.950;11.108;2023-10-19T05:37:07;96534.69;;;10.63;100.00
34586;BME280;20816;50.950;11.108;2023-10-19T05:39:35;96535.63;;;10.62;100.00
34586;BME280;20816;50.950;11.108;2023-10-19T05:42:03;96534.19;;;10.56;100.00
34586;BME280;20816;50.950;11.108;2023-10-19T05:44:31;96544.03;;;10.53;100.00
34586;BME280;20816;50.950;11.108;2023-10-19T05:46:58;96544.19;;;10.50;100.00
34586;BME280;20816;50.950;11.108;2023-10-19T05:49:26;96543.75;;;10.42;100.00
34586;BME280;20816;50.950;11.108;2023-10-19T05:51:55;96544.78;;;10.39;100.00
34586;BME280;20816;50.950;11.108;2023-10-19T05:54:22;96549.16;;;10.38;100.00
34586;BME280;20816;50.950;11.108;2023-10-19T05:56:51;96554.44;;;10.38;100.00
34586;BME280;20816;50.950;11.108;2023-10-19T05:59:18;96551.47;;;10.45;100.00
34586;BME280;20816;50.950;11.108;2023-10-19T06:01:45;96551.63;;;10.42;100.00
34586;BME280;20816;50.950;11.108;2023-10-19T06:04:15;96554.59;;;10.35;100.00
34586;BME280;20816;50.950;11.108;2023-10-19T06:06:47;96559.69;;;10.38;100.00
34586;BME280;20816;50.950;11.108;2023-10-19T06:09:15;96569.25;;;10.39;100.00
34586;BME280;20816;50.950;11.108;2023-10-19T06:11:44;96571.88;;;10.39;100.00
34586;BME280;20816;50.950;11.108;2023-10-19T06:14:11;96578.81;;;10.41;100.00
34586;BME280;20816;50.950;11.108;2023-10-19T06:16:37;96583.53;;;10.34;100.00
34586;BME280;20816;50.950;11.108;2023-10-19T06:19:04;96573.75;;;10.20;100.00
34586;BME280;20816;50.950;11.108;2023-10-19T06:21:32;96583.19;;;10.24;100.00
34586;BME280;20816;50.950;11.108;2023-10-19T06:24:00;96576.53;;;10.17;100.00
34586;BME280;20816;50.950;11.108;2023-10-19T06:26:27;96585.34;;;10.16;100.00
34586;BME280;20816;50.950;11.108;2023-10-19T06:28:54;96575.31;;;10.07;100.00
34586;BME280;20816;50.950;11.108;2023-10-19T06:31:29;96572.47;;;10.11;100.00
34586;BME280;20816;50.950;11.108;2023-10-19T06:33:57;96576.88;;;10.11;100.00
34586;BME280;20816;50.950;11.108;2023-10-19T06:36:25;96585.06;;;10.05;100.00
34586;BME280;20816;50.950;11.108;2023-10-19T06:38:51;96596.50;;;10.04;100.00
34586;BME280;20816;50.950;11.108;2023-10-19T06:41:20;96587.59;;;10.06;100.00
34586;BME280;20816;50.950;11.108;2023-10-19T06:43:52;96580.75;;;10.04;100.00
34586;BME280;20816;50.950;11.108;2023-10-19T06:46:19;96584.22;;;10.04;100.00
34586;BME280;20816;50.950;11.108;2023-10-19T06:48:48;96578.19;;;10.02;100.00
34586;BME280;20816;50.950;11.108;2023-10-19T06:51:14;96576.66;;;9.98;100.00
34586;BME280;20816;50.950;11.108;2023-10-19T06:53:43;96576.56;;;10.00;100.00
34586;BME280;20816;50.950;11.108;2023-10-19T06:56:10;96576.56;;;10.00;100.00
34586;BME280;20816;50.950;11.108;2023-10-19T06:58:37;96576.44;;;10.03;100.00
34586;BME280;20816;50.950;11.108;2023-10-19T07:01:07;96576.34;;;10.04;100.00
34586;BME280;20816;50.950;11.108;2023-10-19T07:03:35;96570.06;;;10.07;100.00
34586;BME280;20816;50.950;11.108;2023-10-19T07:06:03;96576.88;;;10.11;100.00
34586;BME280;20816;50.950;11.108;2023-10-19T07:08:36;96569.44;;;10.19;100.00
34586;BME280;20816;50.950;11.108;2023-10-19T07:11:02;96568.38;;;10.23;100.00
34586;BME280;20816;50.950;11.108;2023-10-19T07:13:30;96571.00;;;10.23;100.00
34586;BME280;20816;50.950;11.108;2023-10-19T07:16:00;96565.88;;;10.20;100.00
34586;BME280;20816;50.950;11.108;2023-10-19T07:18:27;96569.13;;;10.25;100.00
34586;BME280;20816;50.950;11.108;2023-10-19T07:20:55;96565.44;;;10.29;100.00
34586;BME280;20816;50.950;11.108;2023-10-19T07:23:30;96566.63;;;10.39;100.00
34586;BME280;20816;50.950;11.108;2023-10-19T07:25:56;96558.09;;;10.52;100.00
34586;BME280;20816;50.950;11.108;2023-10-19T07:28:26;96559.00;;;10.82;100.00
34586;BME280;20816;50.950;11.108;2023-10-19T07:30:54;96557.81;;;11.19;100.00
34586;BME280;20816;50.950;11.108;2023-10-19T07:33:23;96554.56;;;11.30;100.00
34586;BME280;20816;50.950;11.108;2023-10-19T07:35:50;96552.53;;;11.65;100.00
34586;BME280;20816;50.950;11.108;2023-10-19T07:38:24;96547.97;;;11.83;100.00
34586;BME280;20816;50.950;11.108;2023-10-19T07:40:52;96564.78;;;11.81;100.00
34586;BME280;20816;50.950;11.108;2023-10-19T07:43:20;96566.22;;;11.86;100.00
34586;BME280;20816;50.950;11.108;2023-10-19T07:45:48;96559.34;;;11.84;100.00
34586;BME280;20816;50.950;11.108;2023-10-19T07:48:15;96565.09;;;11.90;100.00
34586;BME280;20816;50.950;11.108;2023-10-19T07:50:43;96552.69;;;11.92;100.00
34586;BME280;20816;50.950;11.108;2023-10-19T07:53:11;96550.63;;;11.97;100.00
34586;BME280;20816;50.950;11.108;2023-10-19T07:55:38;96553.81;;;12.02;100.00
34586;BME280;20816;50.950;11.108;2023-10-19T07:58:06;96555.16;;;12.10;100.00
34586;BME280;20816;50.950;11.108;2023-10-19T08:00:33;96545.94;;;12.17;100.00
34586;BME280;20816;50.950;11.108;2023-10-19T08:03:01;96539.25;;;12.25;100.00
34586;BME280;20816;50.950;11.108;2023-10-19T08:05:28;96534.25;;;12.35;100.00
34586;BME280;20816;50.950;11.108;2023-10-19T08:07:55;96535.00;;;12.51;100.00
34586;BME280;20816;50.950;11.108;2023-10-19T08:10:24;96537.63;;;12.66;100.00
34586;BME280;20816;50.950;11.108;2023-10-19T08:12:53;96528.53;;;12.84;100.00
34586;BME280;20816;50.950;11.108;2023-10-19T08:15:22;96529.06;;;13.03;100.00
34586;BME280;20816;50.950;11.108;2023-10-19T08:17:50;96526.44;;;13.16;100.00
34586;BME280;20816;50.950;11.108;2023-10-19T08:20:17;96535.94;;;13.33;100.00
34586;BME280;20816;50.950;11.108;2023-10-19T08:22:55;96541.59;;;13.54;100.00
34586;BME280;20816;50.950;11.108;2023-10-19T08:25:25;96538.22;;;13.64;100.00
34586;BME280;20816;50.950;11.108;2023-10-19T08:28:13;96534.78;;;13.77;100.00
34586;BME280;20816;50.950;11.108;2023-10-19T08:30:41;96536.66;;;13.74;100.00
34586;BME280;20816;50.950;11.108;2023-10-19T08:33:08;96534.66;;;13.91;100.00
34586;BME280;20816;50.950;11.108;2023-10-19T08:35:35;96540.59;;;13.94;100.00
34586;BME280;20816;50.950;11.108;2023-10-19T08:38:02;96546.81;;;14.06;100.00
34586;BME280;20816;50.950;11.108;2023-10-19T08:40:37;96537.84;;;14.21;100.00
34586;BME280;20816;50.950;11.108;2023-10-19T08:43:05;96542.28;;;14.34;100.00
34586;BME280;20816;50.950;11.108;2023-10-19T08:45:32;96539.84;;;14.30;100.00
34586;BME280;20816;50.950;11.108;2023-10-19T08:48:01;96538.78;;;14.20;100.00
34586;BME280;20816;50.950;11.108;2023-10-19T08:50:30;96539.50;;;13.84;100.00
34586;BME280;20816;50.950;11.108;2023-10-19T08:52:59;96546.50;;;13.98;100.00
34586;BME280;20816;50.950;11.108;2023-10-19T08:55:27;96545.66;;;13.85;100.00
34586;BME280;20816;50.950;11.108;2023-10-19T08:57:57;96543.31;;;13.80;100.00
34586;BME280;20816;50.950;11.108;2023-10-19T09:00:27;96532.13;;;13.77;100.00
34586;BME280;20816;50.950;11.108;2023-10-19T09:02:54;96533.50;;;13.95;100.00
34586;BME280;20816;50.950;11.108;2023-10-19T09:05:23;96537.44;;;14.02;100.00
34586;BME280;20816;50.950;11.108;2023-10-19T09:07:50;96539.94;;;14.16;100.00
34586;BME280;20816;50.950;11.108;2023-10-19T09:10:28;96537.91;;;14.32;100.00
34586;BME280;20816;50.950;11.108;2023-10-19T09:12:59;96520.72;;;14.27;100.00
34586;BME280;20816;50.950;11.108;2023-10-19T09:15:28;96528.88;;;14.11;100.00
34586;BME280;20816;50.950;11.108;2023-10-19T09:18:20;96533.28;;;14.23;100.00
34586;BME280;20816;50.950;11.108;2023-10-19T09:20:49;96537.41;;;14.15;100.00
34586;BME280;20816;50.950;11.108;2023-10-19T09:23:35;96528.53;;;14.54;100.00
34586;BME280;20816;50.950;11.108;2023-10-19T09:26:04;96518.13;;;14.64;100.00
34586;BME280;20816;50.950;11.108;2023-10-19T09:28:36;96525.38;;;14.85;100.00
34586;BME280;20816;50.950;11.108;2023-10-19T09:31:05;96516.34;;;15.01;100.00
34586;BME280;20816;50.950;11.108;2023-10-19T09:33:33;96516.22;;;15.26;100.00
34586;BME280;20816;50.950;11.108;2023-10-19T09:36:02;96509.94;;;15.16;100.00
34586;BME280;20816;50.950;11.108;2023-10-19T09:38:31;96510.00;;;15.38;100.00
34586;BME280;20816;50.950;11.108;2023-10-19T09:41:00;96513.03;;;15.45;100.00
34586;BME280;20816;50.950;11.108;2023-10-19T09:43:37;96518.56;;;15.66;100.00
34586;BME280;20816;50.950;11.108;2023-10-19T09:46:09;96513.59;;;15.96;100.00
34586;BME280;20816;50.950;11.108;2023-10-19T09:48:42;96519.72;;;15.97;100.00
34586;BME280;20816;50.950;11.108;2023-10-19T09:51:13;96516.13;;;16.09;100.00
34586;BME280;20816;50.950;11.108;2023-10-19T09:53:45;96516.00;;;16.00;100.00
34586;BME280;20816;50.950;11.108;2023-10-19T09:56:32;96522.00;;;15.90;100.00
34586;BME280;20816;50.950;11.108;2023-10-19T09:59:05;96515.34;;;15.85;100.00
34586;BME280;20816;50.950;11.108;2023-10-19T10:04:34;96513.09;;;15.91;100.00
34586;BME280;20816;50.950;11.108;2023-10-19T10:07:04;96508.16;;;15.98;100.00
34586;BME280;20816;50.950;11.108;2023-10-19T10:09:39;96513.13;;;16.14;100.00
34586;BME280;20816;50.950;11.108;2023-10-19T10:12:23;96501.19;;;16.19;100.00
34586;BME280;20816;50.950;11.108;2023-10-19T10:17:28;96499.63;;;16.39;100.00
34586;BME280;20816;50.950;11.108;2023-10-19T10:22:37;96478.50;;;16.60;100.00
34586;BME280;20816;50.950;11.108;2023-10-19T10:25:04;96477.19;;;17.20;100.00
34586;BME280;20816;50.950;11.108;2023-10-19T10:27:31;96474.53;;;17.52;98.77
34586;BME280;20816;50.950;11.108;2023-10-19T10:30:00;96473.63;;;17.63;96.88
34586;BME280;20816;50.950;11.108;2023-10-19T10:38:08;96476.59;;;17.17;99.30
34586;BME280;20816;50.950;11.108;2023-10-19T10:41:02;96467.84;;;17.37;100.00
34586;BME280;20816;50.950;11.108;2023-10-19T10:43:29;96471.78;;;17.43;100.00
34586;BME280;20816;50.950;11.108;2023-10-19T10:46:04;96462.44;;;17.59;100.00
34586;BME280;20816;50.950;11.108;2023-10-19T10:48:30;96464.25;;;17.80;100.00
34586;BME280;20816;50.950;11.108;2023-10-19T10:50:57;96456.31;;;17.69;99.42
34586;BME280;20816;50.950;11.108;2023-10-19T10:53:25;96462.84;;;17.76;99.78
34586;BME280;20816;50.950;11.108;2023-10-19T10:55:53;96469.94;;;17.54;100.00
34586;BME280;20816;50.950;11.108;2023-10-19T10:58:20;96455.41;;;17.58;98.41
34586;BME280;20816;50.950;11.108;2023-10-19T11:00:48;96448.53;;;17.98;99.95
34586;BME280;20816;50.950;11.108;2023-10-19T11:03:18;96452.28;;;18.56;94.92
34586;BME280;20816;50.950;11.108;2023-10-19T11:05:45;96448.50;;;19.18;91.75
34586;BME280;20816;50.950;11.108;2023-10-19T11:08:16;96454.41;;;19.41;89.20
34586;BME280;20816;50.950;11.108;2023-10-19T11:10:45;96452.72;;;19.50;88.37
34586;BME280;20816;50.950;11.108;2023-10-19T11:13:17;96445.44;;;19.32;88.13
34586;BME280;20816;50.950;11.108;2023-10-19T11:15:51;96447.09;;;19.33;87.44
34586;BME280;20816;50.950;11.108;2023-10-19T11:18:28;96441.75;;;19.04;88.90
34586;BME280;20816;50.950;11.108;2023-10-19T11:20:56;96437.66;;;18.71;92.53
34586;BME280;20816;50.950;11.108;2023-10-19T11:26:03;96437.72;;;18.51;91.25
34586;BME280;20816;50.950;11.108;2023-10-19T11:28:32;96445.69;;;18.51;90.91
34586;BME280;20816;50.950;11.108;2023-10-19T11:31:17;96425.47;;;18.69;91.14
34586;BME280;20816;50.950;11.108;2023-10-19T11:33:46;96433.16;;;18.32;90.61
34586;BME280;20816;50.950;11.108;2023-10-19T11:36:16;96424.50;;;18.39;91.71
34586;BME280;20816;50.950;11.108;2023-10-19T11:38:44;96426.44;;;18.28;91.39
34586;BME280;20816;50.950;11.108;2023-10-19T11:41:12;96426.72;;;18.25;92.24
34586;BME280;20816;50.950;11.108;2023-10-19T11:43:41;96426.47;;;18.07;93.11
34586;BME280;20816;50.950;11.108;2023-10-19T11:46:09;96426.22;;;18.10;93.93
34586;BME280;20816;50.950;11.108;2023-10-19T11:48:39;96430.94;;;18.06;91.99
34586;BME280;20816;50.950;11.108;2023-10-19T11:51:06;96430.16;;;18.15;92.63
34586;BME280;20816;50.950;11.108;2023-10-19T11:53:34;96420.19;;;18.08;91.72
34586;BME280;20816;50.950;11.108;2023-10-19T11:56:07;96424.28;;;18.12;92.64
34586;BME280;20816;50.950;11.108;2023-10-19T11:58:36;96421.47;;;18.13;91.89
34586;BME280;20816;50.950;11.108;2023-10-19T12:01:09;96427.13;;;17.99;93.51
34586;BME280;20816;50.950;11.108;2023-10-19T12:03:42;96427.25;;;18.18;93.64
34586;BME280;20816;50.950;11.108;2023-10-19T12:06:13;96429.91;;;18.18;94.05
34586;BME280;20816;50.950;11.108;2023-10-19T12:08:46;96426.13;;;18.21;93.88
34586;BME280;20816;50.950;11.108;2023-10-19T12:11:13;96434.25;;;18.19;93.75
34586;BME280;20816;50.950;11.108;2023-10-19T12:13:45;96428.28;;;18.06;92.66
34586;BME280;20816;50.950;11.108;2023-10-19T12:16:15;96429.44;;;18.13;93.01
34586;BME280;20816;50.950;11.108;2023-10-19T12:18:46;96416.34;;;18.21;93.09
34586;BME280;20816;50.950;11.108;2023-10-19T12:21:15;96414.66;;;18.20;92.11
34586;BME280;20816;50.950;11.108;2023-10-19T12:23:46;96417.50;;;18.38;91.88
34586;BME280;20816;50.950;11.108;2023-10-19T12:26:20;96408.31;;;18.52;90.88
34586;BME280;20816;50.950;11.108;2023-10-19T12:28:47;96413.13;;;18.18;95.59
34586;BME280;20816;50.950;11.108;2023-10-19T12:31:16;96418.81;;;17.83;97.99
34586;BME280;20816;50.950;11.108;2023-10-19T12:33:46;96423.22;;;17.73;100.00
34586;BME280;20816;50.950;11.108;2023-10-19T12:36:12;96419.84;;;17.50;96.92
34586;BME280;20816;50.950;11.108;2023-10-19T12:38:48;96415.78;;;17.46;95.52
34586;BME280;20816;50.950;11.108;2023-10-19T12:41:16;96415.38;;;17.50;94.74
34586;BME280;20816;50.950;11.108;2023-10-19T12:43:44;96420.19;;;17.35;95.89
34586;BME280;20816;50.950;11.108;2023-10-19T12:46:15;96412.50;;;17.42;95.43
34586;BME280;20816;50.950;11.108;2023-10-19T12:48:45;96413.28;;;17.33;96.00
34586;BME280;20816;50.950;11.108;2023-10-19T12:51:15;96411.94;;;17.38;95.08
34586;BME280;20816;50.950;11.108;2023-10-19T12:53:44;96414.22;;;17.43;96.30
34586;BME280;20816;50.950;11.108;2023-10-19T12:56:12;96404.94;;;17.37;96.30
34586;BME280;20816;50.950;11.108;2023-10-19T12:58:39;96401.44;;;17.58;95.55
34586;BME280;20816;50.950;11.108;2023-10-19T13:01:07;96400.28;;;17.72;94.19
34586;BME280;20816;50.950;11.108;2023-10-19T13:03:44;96407.75;;;17.78;97.49
34586;BME280;20816;50.950;11.108;2023-10-19T13:06:14;96399.16;;;17.95;95.59
34586;BME280;20816;50.950;11.108;2023-10-19T13:08:41;96393.22;;;17.82;96.90
34586;BME280;20816;50.950;11.108;2023-10-19T13:11:09;96385.66;;;17.77;97.22
34586;BME280;20816;50.950;11.108;2023-10-19T13:13:44;96396.31;;;17.66;99.71
34586;BME280;20816;50.950;11.108;2023-10-19T13:16:12;96400.09;;;17.63;100.00
34586;BME280;20816;50.950;11.108;2023-10-19T13:18:40;96399.31;;;17.31;100.00